Berlin — 9HA2295 — position and weather

sailwx.info

Track history (hours):
 
Tides and Currents Weather Stations Pressure Air Temp Water Temp Dewpoint Dewpoint Depression Visibility Wind Speed Wind Dir Waves Ship Positions

Berlin

Last reported at 2017-Apr-25 03:23 UTC. Time now 2017-Apr-25 12:31 UTC.
Position N 39°43' E 004°14'.

Length 140 m; draft 5 m.

Type: Ship. MMSI: 248277000.

Date/timePositionNaut miles runAvg speedWind from/ knotsBaromVisibWave heightAir tempDewpointWater temp
2017-Apr-25 03:23N 39°43' E 004°14'511.6
2017-Apr-25 02:54N 39°40' E 004°08'14 7.7
2017-Apr-25 01:07N 39°32' E 003°53'211.2
2017-Apr-25 00:58N 39°31' E 003°52'511.5
2017-Apr-25 00:30N 39°28' E 003°46'611.4
2017-Apr-24 23:58N 39°24' E 003°40'511.3
2017-Apr-24 23:30N 39°22' E 003°34'611.3
2017-Apr-24 23:00N 39°18' E 003°28'611.3
2017-Apr-24 22:30N 39°15' E 003°22'611.4
2017-Apr-24 21:58N 39°12' E 003°16'511.3
2017-Apr-24 21:30N 39°09' E 003°10'611.1
2017-Apr-24 21:00N 39°05' E 003°04'511.0
2017-Apr-24 20:30N 39°05' E 002°57'510.1
2017-Apr-24 20:00N 39°06' E 002°51'510.7
2017-Apr-24 19:30N 39°11' E 002°48'510.6
2017-Apr-24 19:00N 39°16' E 002°46'510.6
2017-Apr-24 18:30N 39°21' E 002°44'510.7
2017-Apr-24 18:00N 39°26' E 002°41'510.6
2017-Apr-24 17:30N 39°31' E 002°39'2 4.7
2017-Apr-24 17:00N 39°33' E 002°38'0 0.0
2017-Apr-24 15:55N 39°33' E 002°38'0 0.0
2017-Apr-24 15:25N 39°33' E 002°38'0 0.0
2017-Apr-24 14:55N 39°33' E 002°38'0 0.0
2017-Apr-24 14:25N 39°33' E 002°38'0 0.0
2017-Apr-24 13:25N 39°33' E 002°38'0 0.0
2017-Apr-24 12:55N 39°33' E 002°38'0 0.0
2017-Apr-24 12:25N 39°33' E 002°38'0 0.0
2017-Apr-24 11:55N 39°33' E 002°38'0 0.0
2017-Apr-24 11:25N 39°33' E 002°38'0 0.0
2017-Apr-24 10:55N 39°33' E 002°38'0 0.0
2017-Apr-24 10:25N 39°33' E 002°38'0 0.0
2017-Apr-24 09:55N 39°33' E 002°38'0 0.0
2017-Apr-24 09:25N 39°33' E 002°38'0 0.0
2017-Apr-24 08:55N 39°33' E 002°38'0 0.0
2017-Apr-24 08:25N 39°33' E 002°38'0 0.0
2017-Apr-24 07:55N 39°33' E 002°38'0 0.0
2017-Apr-24 07:25N 39°33' E 002°38'0 0.0
2017-Apr-24 06:55N 39°33' E 002°38'0 0.0
2017-Apr-24 06:25N 39°33' E 002°38'0 0.0
2017-Apr-24 06:00N 39°33' E 002°38'1 2.0
2017-Apr-24 05:30N 39°32' E 002°39'3 6.5
2017-Apr-24 05:00N 39°29' E 002°38'510.6
2017-Apr-24 04:31N 39°26' E 002°33'611.9
2017-Apr-24 04:01N 39°27' E 002°25'714.3
2017-Apr-24 03:30N 39°32' E 002°18'510.6
2017-Apr-24 03:00N 39°37' E 002°16'510.8
2017-Apr-24 02:30N 39°43' E 002°16'510.5
2017-Apr-24 02:00N 39°48' E 002°16'510.4
2017-Apr-24 01:30N 39°53' E 002°16'510.2
2017-Apr-24 01:00N 39°58' E 002°15'510.2
2017-Apr-24 00:30N 40°03' E 002°16'510.4
2017-Apr-24 00:00N 40°08' E 002°16'510.5
2017-Apr-23 23:30N 40°14' E 002°15'511.0
2017-Apr-23 23:00N 40°19' E 002°15'511.0
2017-Apr-23 22:30N 40°25' E 002°15'611.0
2017-Apr-23 22:00N 40°30' E 002°14'612.7
2017-Apr-23 21:30N 40°37' E 002°14'714.5
2017-Apr-23 21:00N 40°44' E 002°14'714.5
2017-Apr-23 20:30N 40°51' E 002°14'714.9
2017-Apr-23 20:00N 40°58' E 002°14'814.9
2017-Apr-23 19:30N 41°06' E 002°13'714.5
2017-Apr-23 19:00N 41°13' E 002°13'612.8
2017-Apr-23 18:30N 41°20' E 002°13'3 5.9
2017-Apr-23 17:59N 41°22' E 002°11'0 0.0
2017-Apr-23 17:29N 41°22' E 002°11'0 0.0
2017-Apr-23 16:59N 41°22' E 002°11'0 0.0
2017-Apr-23 16:29N 41°22' E 002°11'0 0.0
2017-Apr-23 15:59N 41°22' E 002°11'0 0.0
2017-Apr-23 15:29N 41°22' E 002°11'0 0.0
2017-Apr-23 14:47N 41°22' E 002°11'0 0.0
2017-Apr-23 13:59N 41°22' E 002°11'0 0.0
2017-Apr-23 13:29N 41°22' E 002°11'0 0.0
2017-Apr-23 12:59N 41°22' E 002°11'0 0.0
2017-Apr-23 12:29N 41°22' E 002°11'0 0.0
2017-Apr-23 11:23N 41°22' E 002°11'0 0.0
2017-Apr-23 09:41N 41°22' E 002°11'0 0.0
2017-Apr-23 09:23N 41°22' E 002°11'0 0.0
2017-Apr-23 07:41N 41°22' E 002°11'0 0.0
2017-Apr-23 07:29N 41°22' E 002°11'0 0.0
2017-Apr-23 06:50N 41°22' E 002°11'0 0.0
2017-Apr-23 06:29N 41°22' E 002°11'0 0.0
2017-Apr-23 05:59N 41°22' E 002°11'0 0.0
2017-Apr-23 05:26N 41°22' E 002°11'0 0.0
2017-Apr-23 04:59N 41°22' E 002°11'0 0.0
2017-Apr-23 04:29N 41°22' E 002°11'0 0.0
2017-Apr-23 03:23N 41°22' E 002°11'0 0.0
2017-Apr-23 02:47N 41°22' E 002°11'0 0.0
2017-Apr-23 02:23N 41°22' E 002°11'0 0.0
2017-Apr-23 01:59N 41°22' E 002°11'0 0.0
2017-Apr-23 01:14N 41°22' E 002°11'0 0.0
2017-Apr-23 00:56N 41°22' E 002°11'0 0.0
2017-Apr-23 00:29N 41°22' E 002°11'0 0.0
2017-Apr-22 23:59N 41°22' E 002°11'0 0.0
2017-Apr-22 22:23N 41°22' E 002°11'0 0.0
2017-Apr-22 21:59N 41°22' E 002°11'0 0.0
2017-Apr-22 21:29N 41°22' E 002°11'0 0.0
2017-Apr-22 20:23N 41°22' E 002°11'0 0.0
2017-Apr-22 19:59N 41°22' E 002°11'0 0.0
2017-Apr-22 19:29N 41°22' E 002°11'0 0.0
2017-Apr-22 18:59N 41°22' E 002°11'0 0.0
2017-Apr-22 18:30N 41°22' E 002°11'0 0.0
2017-Apr-22 18:00N 41°22' E 002°11'0 0.0
2017-Apr-22 17:30N 41°22' E 002°11'0 0.0
2017-Apr-22 17:00N 41°22' E 002°11'0 0.0
2017-Apr-22 16:29N 41°22' E 002°11'0 0.0
2017-Apr-22 16:00N 41°22' E 002°11'0 0.0
2017-Apr-22 15:31N 41°22' E 002°11'0 0.0
2017-Apr-22 14:58N 41°22' E 002°11'0 0.0
2017-Apr-22 14:30N 41°22' E 002°11'0 0.0
2017-Apr-22 13:13N 41°22' E 002°11'0 0.0
2017-Apr-22 13:00N 41°22' E 002°11'0 0.0
2017-Apr-22 12:30N 41°22' E 002°11'0 0.0
2017-Apr-22 12:00N 41°22' E 002°11'0 0.0
2017-Apr-22 11:27N 41°22' E 002°11'0 1.0
2017-Apr-22 10:58N 41°22' E 002°11'2 5.3
2017-Apr-22 10:30N 41°20' E 002°13'711.1
2017-Apr-22 09:54N 41°22' E 002°22'614.2
2017-Apr-22 09:31N 41°25' E 002°28'5411.2
2017-Apr-22 04:42N 41°50' E 003°32'8913.6
2017-Apr-21 22:10N 42°31' E 005°18'7414.5
2017-Apr-21 17:04N 43°09' E 006°45'314.6
2017-Apr-21 16:52N 43°11' E 006°47'914.5
2017-Apr-21 16:15N 43°18' E 006°55'314.3
2017-Apr-21 16:00N 43°21' E 006°59'713.9
2017-Apr-21 15:31N 43°26' E 007°05'713.8
2017-Apr-21 15:00N 43°31' E 007°10'714.4
2017-Apr-21 14:30N 43°38' E 007°15'4 3.9
2017-Apr-21 13:26N 43°42' E 007°17'0 0.0
2017-Apr-21 12:56N 43°42' E 007°17'0 0.0
2017-Apr-21 12:29N 43°42' E 007°17'0 0.0
2017-Apr-21 11:50N 43°42' E 007°17'0 0.0
2017-Apr-21 11:26N 43°42' E 007°17'0 0.0
2017-Apr-21 10:56N 43°42' E 007°17'0 0.0
2017-Apr-21 10:26N 43°42' E 007°17'0 0.0
2017-Apr-21 09:56N 43°42' E 007°17'0 0.0
2017-Apr-21 09:20N 43°42' E 007°17'0 0.0
2017-Apr-21 08:32N 43°42' E 007°17'0 0.0
2017-Apr-21 08:26N 43°42' E 007°17'0 0.0
2017-Apr-21 07:50N 43°42' E 007°17'0 0.0
2017-Apr-21 07:17N 43°42' E 007°17'0 0.0
2017-Apr-21 06:59N 43°42' E 007°17'0 0.0
2017-Apr-21 06:23N 43°42' E 007°17'0 0.0
2017-Apr-21 05:56N 43°42' E 007°17'0 0.0
2017-Apr-21 05:14N 43°42' E 007°17'0 0.0
2017-Apr-21 04:56N 43°42' E 007°17'1 2.2
2017-Apr-21 04:30N 43°41' E 007°17'612.0
2017-Apr-21 04:00N 43°38' E 007°25'713.7
2017-Apr-21 03:30N 43°40' E 007°34'611.7
2017-Apr-21 03:00N 43°41' E 007°42'611.1
2017-Apr-21 02:30N 43°42' E 007°50'3711.5
2017-Apr-20 23:18N 43°49' E 008°40'311.2
2017-Apr-20 23:00N 43°50' E 008°44'713.0
2017-Apr-20 22:30N 43°51' E 008°53'814.9
2017-Apr-20 22:00N 43°53' E 009°03'714.7
2017-Apr-20 21:30N 43°54' E 009°13'714.6
2017-Apr-20 21:00N 43°56' E 009°23'714.7
2017-Apr-20 20:31N 43°58' E 009°33'714.7
2017-Apr-20 20:01N 43°59' E 009°43'713.3
2017-Apr-20 19:30N 44°01' E 009°52'2 4.3
2017-Apr-20 18:58N 44°03' E 009°51'0 0.1
2017-Apr-20 18:28N 44°03' E 009°51'0 0.0
2017-Apr-20 17:58N 44°03' E 009°51'0 0.0
2017-Apr-20 17:28N 44°03' E 009°51'0 0.0
2017-Apr-20 16:58N 44°03' E 009°51'0 0.1
2017-Apr-20 16:22N 44°03' E 009°51'0 0.0
2017-Apr-20 15:58N 44°03' E 009°51'0 0.1
2017-Apr-20 15:28N 44°03' E 009°51'0 0.1
2017-Apr-20 14:58N 44°03' E 009°51'0 0.0
2017-Apr-20 13:58N 44°03' E 009°51'0 0.1
2017-Apr-20 13:28N 44°03' E 009°51'0 0.1
2017-Apr-20 12:58N 44°03' E 009°51'0 0.1
2017-Apr-20 12:28N 44°03' E 009°51'0 0.0
2017-Apr-20 11:52N 44°03' E 009°51'0 0.1
2017-Apr-20 11:28N 44°03' E 009°51'0 0.1
2017-Apr-20 10:58N 44°03' E 009°51'0 0.1
2017-Apr-20 10:28N 44°03' E 009°51'0 0.1
2017-Apr-20 09:58N 44°03' E 009°51'0 0.0
2017-Apr-20 09:28N 44°03' E 009°51'0 0.0
2017-Apr-20 08:58N 44°03' E 009°51'0 0.0
2017-Apr-20 08:28N 44°03' E 009°51'0 0.0
2017-Apr-20 07:58N 44°03' E 009°51'0 0.0
2017-Apr-20 07:28N 44°03' E 009°51'0 0.0
2017-Apr-20 06:58N 44°03' E 009°51'0 0.0
2017-Apr-20 06:28N 44°03' E 009°51'0 0.0
2017-Apr-20 05:58N 44°03' E 009°51'0 0.1
2017-Apr-20 05:28N 44°03' E 009°51'0 0.0
2017-Apr-20 05:00N 44°03' E 009°51'1 2.0
2017-Apr-20 04:30N 44°03' E 009°52'612.9
2017-Apr-20 04:01N 43°58' E 009°58'611.8
2017-Apr-20 03:31N 43°53' E 010°00'511.0
2017-Apr-20 03:01N 43°47' E 010°03'511.0
2017-Apr-20 02:30N 43°42' E 010°05'510.4
2017-Apr-20 02:01N 43°37' E 010°05'510.0
2017-Apr-20 01:30N 43°32' E 010°05'510.7
2017-Apr-20 01:00N 43°27' E 010°08'611.1
2017-Apr-20 00:31N 43°22' E 010°11'611.4
2017-Apr-20 00:00N 43°17' E 010°14'611.3
2017-Apr-19 23:30N 43°12' E 010°18'611.3
2017-Apr-19 23:00N 43°06' E 010°21'611.5
2017-Apr-19 22:30N 43°01' E 010°24'810.2
2017-Apr-19 21:41N 42°55' E 010°31'2 8.3
2017-Apr-19 21:26N 42°56' E 010°34'1 0.0
2017-Apr-19 05:31N 42°56' E 010°33'0 2.7
2017-Apr-19 05:27N 42°56' E 010°34'2 4.1
2017-Apr-19 05:00N 42°54' E 010°33'14 9.4
2017-Apr-19 03:33N 42°41' E 010°29'110.8
2017-Apr-19 03:28N 42°40' E 010°28'14 8.9
2017-Apr-19 01:52N 42°28' E 010°18'513.2
2017-Apr-19 01:30N 42°25' E 010°13'  
2017-Apr-16 20:15N 42°30' E 007°49'314.2
2017-Apr-16 20:00N 42°34' E 007°47'714.3
2017-Apr-16 19:30N 42°41' E 007°44'714.4
2017-Apr-16 19:00N 42°47' E 007°41'714.3
2017-Apr-16 18:30N 42°54' E 007°38'714.3
2017-Apr-16 18:00N 43°01' E 007°35'714.1
2017-Apr-16 17:30N 43°08' E 007°32'713.8
2017-Apr-16 17:00N 43°14' E 007°29'714.0
2017-Apr-16 16:30N 43°21' E 007°26'714.1
2017-Apr-16 16:00N 43°28' E 007°23'714.4
2017-Apr-16 15:30N 43°34' E 007°20'612.1
2017-Apr-16 15:00N 43°40' E 007°17'2 3.0
2017-Apr-16 14:29N 43°42' E 007°17'0 0.0
2017-Apr-16 13:29N 43°42' E 007°17'0 0.0
2017-Apr-16 12:53N 43°42' E 007°17'0 0.0
2017-Apr-16 12:26N 43°42' E 007°17'0 0.0
2017-Apr-16 11:56N 43°42' E 007°17'0 0.0
2017-Apr-16 11:29N 43°42' E 007°17'0 0.0
2017-Apr-16 10:50N 43°42' E 007°17'0 0.0
2017-Apr-16 10:27N 43°42' E 007°17'0 0.0
2017-Apr-16 09:47N 43°42' E 007°17'0 0.0
2017-Apr-16 09:29N 43°42' E 007°17'0 0.0
2017-Apr-16 08:53N 43°42' E 007°17'0 0.0
2017-Apr-16 08:29N 43°42' E 007°17'0 0.0
2017-Apr-16 07:53N 43°42' E 007°17'0 0.0
2017-Apr-16 07:26N 43°42' E 007°17'0 0.0
2017-Apr-16 06:56N 43°42' E 007°17'0 0.0
2017-Apr-16 06:29N 43°42' E 007°17'0 0.0
2017-Apr-16 05:56N 43°42' E 007°17'0 0.0
2017-Apr-16 05:26N 43°42' E 007°17'0 0.0
2017-Apr-16 04:59N 43°42' E 007°17'0 0.0
2017-Apr-16 04:26N 43°42' E 007°17'0 0.0
2017-Apr-16 04:00N 43°42' E 007°17'1 2.7
2017-Apr-16 03:30N 43°40' E 007°17'612.8
2017-Apr-16 03:00N 43°34' E 007°14'4 7.0
2017-Apr-16 02:30N 43°31' E 007°15'4 7.3
2017-Apr-16 02:00N 43°29' E 007°19'510.5
2017-Apr-16 01:30N 43°28' E 007°12'5 9.7
2017-Apr-16 01:00N 43°23' E 007°12'4 7.4
2017-Apr-16 00:30N 43°20' E 007°10'510.4
2017-Apr-16 00:00N 43°19' E 007°03'610.4
2017-Apr-15 23:25N 43°19' E 006°55'410.4
2017-Apr-15 23:00N 43°18' E 006°49'5 0.3
2017-Apr-15 04:45N 43°18' E 006°42'  
Track history (hours):
 
Tides and Currents Weather Stations Pressure Air Temp Water Temp Dewpoint Dewpoint Depression Visibility Wind Speed Wind Dir Waves Ship Positions

Berlin

Last reported at 2017-Apr-25 03:23 UTC. Time now 2017-Apr-25 12:31 UTC.
Position N 39°43' E 004°14'.

Length 140 m; draft 5 m.

Type: Ship. MMSI: 248277000.

Date/timePositionNaut miles runAvg speedWind from/ knotsBaromVisibWave heightAir tempDewpointWater temp
2017-Apr-25 03:23N 39°43' E 004°14'511.6
2017-Apr-25 02:54N 39°40' E 004°08'14 7.7
2017-Apr-25 01:07N 39°32' E 003°53'211.2
2017-Apr-25 00:58N 39°31' E 003°52'511.5
2017-Apr-25 00:30N 39°28' E 003°46'611.4
2017-Apr-24 23:58N 39°24' E 003°40'511.3
2017-Apr-24 23:30N 39°22' E 003°34'611.3
2017-Apr-24 23:00N 39°18' E 003°28'611.3
2017-Apr-24 22:30N 39°15' E 003°22'611.4
2017-Apr-24 21:58N 39°12' E 003°16'511.3
2017-Apr-24 21:30N 39°09' E 003°10'611.1
2017-Apr-24 21:00N 39°05' E 003°04'511.0
2017-Apr-24 20:30N 39°05' E 002°57'510.1
2017-Apr-24 20:00N 39°06' E 002°51'510.7
2017-Apr-24 19:30N 39°11' E 002°48'510.6
2017-Apr-24 19:00N 39°16' E 002°46'510.6
2017-Apr-24 18:30N 39°21' E 002°44'510.7
2017-Apr-24 18:00N 39°26' E 002°41'510.6
2017-Apr-24 17:30N 39°31' E 002°39'2 4.7
2017-Apr-24 17:00N 39°33' E 002°38'0 0.0
2017-Apr-24 15:55N 39°33' E 002°38'0 0.0
2017-Apr-24 15:25N 39°33' E 002°38'0 0.0
2017-Apr-24 14:55N 39°33' E 002°38'0 0.0
2017-Apr-24 14:25N 39°33' E 002°38'0 0.0
2017-Apr-24 13:25N 39°33' E 002°38'0 0.0
2017-Apr-24 12:55N 39°33' E 002°38'0 0.0
2017-Apr-24 12:25N 39°33' E 002°38'0 0.0
2017-Apr-24 11:55N 39°33' E 002°38'0 0.0
2017-Apr-24 11:25N 39°33' E 002°38'0 0.0
2017-Apr-24 10:55N 39°33' E 002°38'0 0.0
2017-Apr-24 10:25N 39°33' E 002°38'0 0.0
2017-Apr-24 09:55N 39°33' E 002°38'0 0.0
2017-Apr-24 09:25N 39°33' E 002°38'0 0.0
2017-Apr-24 08:55N 39°33' E 002°38'0 0.0
2017-Apr-24 08:25N 39°33' E 002°38'0 0.0
2017-Apr-24 07:55N 39°33' E 002°38'0 0.0
2017-Apr-24 07:25N 39°33' E 002°38'0 0.0
2017-Apr-24 06:55N 39°33' E 002°38'0 0.0
2017-Apr-24 06:25N 39°33' E 002°38'0 0.0
2017-Apr-24 06:00N 39°33' E 002°38'1 2.0
2017-Apr-24 05:30N 39°32' E 002°39'3 6.5
2017-Apr-24 05:00N 39°29' E 002°38'510.6
2017-Apr-24 04:31N 39°26' E 002°33'611.9
2017-Apr-24 04:01N 39°27' E 002°25'714.3
2017-Apr-24 03:30N 39°32' E 002°18'510.6
2017-Apr-24 03:00N 39°37' E 002°16'510.8
2017-Apr-24 02:30N 39°43' E 002°16'510.5
2017-Apr-24 02:00N 39°48' E 002°16'510.4
2017-Apr-24 01:30N 39°53' E 002°16'510.2
2017-Apr-24 01:00N 39°58' E 002°15'510.2
2017-Apr-24 00:30N 40°03' E 002°16'510.4
2017-Apr-24 00:00N 40°08' E 002°16'510.5
2017-Apr-23 23:30N 40°14' E 002°15'511.0
2017-Apr-23 23:00N 40°19' E 002°15'511.0
2017-Apr-23 22:30N 40°25' E 002°15'611.0
2017-Apr-23 22:00N 40°30' E 002°14'612.7
2017-Apr-23 21:30N 40°37' E 002°14'714.5
2017-Apr-23 21:00N 40°44' E 002°14'714.5
2017-Apr-23 20:30N 40°51' E 002°14'714.9
2017-Apr-23 20:00N 40°58' E 002°14'814.9
2017-Apr-23 19:30N 41°06' E 002°13'714.5
2017-Apr-23 19:00N 41°13' E 002°13'612.8
2017-Apr-23 18:30N 41°20' E 002°13'3 5.9
2017-Apr-23 17:59N 41°22' E 002°11'0 0.0
2017-Apr-23 17:29N 41°22' E 002°11'0 0.0
2017-Apr-23 16:59N 41°22' E 002°11'0 0.0
2017-Apr-23 16:29N 41°22' E 002°11'0 0.0
2017-Apr-23 15:59N 41°22' E 002°11'0 0.0
2017-Apr-23 15:29N 41°22' E 002°11'0 0.0
2017-Apr-23 14:47N 41°22' E 002°11'0 0.0
2017-Apr-23 13:59N 41°22' E 002°11'0 0.0
2017-Apr-23 13:29N 41°22' E 002°11'0 0.0
2017-Apr-23 12:59N 41°22' E 002°11'0 0.0
2017-Apr-23 12:29N 41°22' E 002°11'0 0.0
2017-Apr-23 11:23N 41°22' E 002°11'0 0.0
2017-Apr-23 09:41N 41°22' E 002°11'0 0.0
2017-Apr-23 09:23N 41°22' E 002°11'0 0.0
2017-Apr-23 07:41N 41°22' E 002°11'0 0.0
2017-Apr-23 07:29N 41°22' E 002°11'0 0.0
2017-Apr-23 06:50N 41°22' E 002°11'0 0.0
2017-Apr-23 06:29N 41°22' E 002°11'0 0.0
2017-Apr-23 05:59N 41°22' E 002°11'0 0.0
2017-Apr-23 05:26N 41°22' E 002°11'0 0.0
2017-Apr-23 04:59N 41°22' E 002°11'0 0.0
2017-Apr-23 04:29N 41°22' E 002°11'0 0.0
2017-Apr-23 03:23N 41°22' E 002°11'0 0.0
2017-Apr-23 02:47N 41°22' E 002°11'0 0.0
2017-Apr-23 02:23N 41°22' E 002°11'0 0.0
2017-Apr-23 01:59N 41°22' E 002°11'0 0.0
2017-Apr-23 01:14N 41°22' E 002°11'0 0.0
2017-Apr-23 00:56N 41°22' E 002°11'0 0.0
2017-Apr-23 00:29N 41°22' E 002°11'0 0.0
2017-Apr-22 23:59N 41°22' E 002°11'0 0.0
2017-Apr-22 22:23N 41°22' E 002°11'0 0.0
2017-Apr-22 21:59N 41°22' E 002°11'0 0.0
2017-Apr-22 21:29N 41°22' E 002°11'0 0.0
2017-Apr-22 20:23N 41°22' E 002°11'0 0.0
2017-Apr-22 19:59N 41°22' E 002°11'0 0.0
2017-Apr-22 19:29N 41°22' E 002°11'0 0.0
2017-Apr-22 18:59N 41°22' E 002°11'0 0.0
2017-Apr-22 18:30N 41°22' E 002°11'0 0.0
2017-Apr-22 18:00N 41°22' E 002°11'0 0.0
2017-Apr-22 17:30N 41°22' E 002°11'0 0.0
2017-Apr-22 17:00N 41°22' E 002°11'0 0.0
2017-Apr-22 16:29N 41°22' E 002°11'0 0.0
2017-Apr-22 16:00N 41°22' E 002°11'0 0.0
2017-Apr-22 15:31N 41°22' E 002°11'0 0.0
2017-Apr-22 14:58N 41°22' E 002°11'0 0.0
2017-Apr-22 14:30N 41°22' E 002°11'0 0.0
2017-Apr-22 13:13N 41°22' E 002°11'0 0.0
2017-Apr-22 13:00N 41°22' E 002°11'0 0.0
2017-Apr-22 12:30N 41°22' E 002°11'0 0.0
2017-Apr-22 12:00N 41°22' E 002°11'0 0.0
2017-Apr-22 11:27N 41°22' E 002°11'0 1.0
2017-Apr-22 10:58N 41°22' E 002°11'2 5.3
2017-Apr-22 10:30N 41°20' E 002°13'711.1
2017-Apr-22 09:54N 41°22' E 002°22'614.2
2017-Apr-22 09:31N 41°25' E 002°28'5411.2
2017-Apr-22 04:42N 41°50' E 003°32'8913.6
2017-Apr-21 22:10N 42°31' E 005°18'7414.5
2017-Apr-21 17:04N 43°09' E 006°45'314.6
2017-Apr-21 16:52N 43°11' E 006°47'914.5
2017-Apr-21 16:15N 43°18' E 006°55'314.3
2017-Apr-21 16:00N 43°21' E 006°59'713.9
2017-Apr-21 15:31N 43°26' E 007°05'713.8
2017-Apr-21 15:00N 43°31' E 007°10'714.4
2017-Apr-21 14:30N 43°38' E 007°15'4 3.9
2017-Apr-21 13:26N 43°42' E 007°17'0 0.0
2017-Apr-21 12:56N 43°42' E 007°17'0 0.0
2017-Apr-21 12:29N 43°42' E 007°17'0 0.0
2017-Apr-21 11:50N 43°42' E 007°17'0 0.0
2017-Apr-21 11:26N 43°42' E 007°17'0 0.0
2017-Apr-21 10:56N 43°42' E 007°17'0 0.0
2017-Apr-21 10:26N 43°42' E 007°17'0 0.0
2017-Apr-21 09:56N 43°42' E 007°17'0 0.0
2017-Apr-21 09:20N 43°42' E 007°17'0 0.0
2017-Apr-21 08:32N 43°42' E 007°17'0 0.0
2017-Apr-21 08:26N 43°42' E 007°17'0 0.0
2017-Apr-21 07:50N 43°42' E 007°17'0 0.0
2017-Apr-21 07:17N 43°42' E 007°17'0 0.0
2017-Apr-21 06:59N 43°42' E 007°17'0 0.0
2017-Apr-21 06:23N 43°42' E 007°17'0 0.0
2017-Apr-21 05:56N 43°42' E 007°17'0 0.0
2017-Apr-21 05:14N 43°42' E 007°17'0 0.0
2017-Apr-21 04:56N 43°42' E 007°17'1 2.2
2017-Apr-21 04:30N 43°41' E 007°17'612.0
2017-Apr-21 04:00N 43°38' E 007°25'713.7
2017-Apr-21 03:30N 43°40' E 007°34'611.7
2017-Apr-21 03:00N 43°41' E 007°42'611.1
2017-Apr-21 02:30N 43°42' E 007°50'3711.5
2017-Apr-20 23:18N 43°49' E 008°40'311.2
2017-Apr-20 23:00N 43°50' E 008°44'713.0
2017-Apr-20 22:30N 43°51' E 008°53'814.9
2017-Apr-20 22:00N 43°53' E 009°03'714.7
2017-Apr-20 21:30N 43°54' E 009°13'714.6
2017-Apr-20 21:00N 43°56' E 009°23'714.7
2017-Apr-20 20:31N 43°58' E 009°33'714.7
2017-Apr-20 20:01N 43°59' E 009°43'713.3
2017-Apr-20 19:30N 44°01' E 009°52'2 4.3
2017-Apr-20 18:58N 44°03' E 009°51'0 0.1
2017-Apr-20 18:28N 44°03' E 009°51'0 0.0
2017-Apr-20 17:58N 44°03' E 009°51'0 0.0
2017-Apr-20 17:28N 44°03' E 009°51'0 0.0
2017-Apr-20 16:58N 44°03' E 009°51'0 0.1
2017-Apr-20 16:22N 44°03' E 009°51'0 0.0
2017-Apr-20 15:58N 44°03' E 009°51'0 0.1
2017-Apr-20 15:28N 44°03' E 009°51'0 0.1
2017-Apr-20 14:58N 44°03' E 009°51'0 0.0
2017-Apr-20 13:58N 44°03' E 009°51'0 0.1
2017-Apr-20 13:28N 44°03' E 009°51'0 0.1
2017-Apr-20 12:58N 44°03' E 009°51'0 0.1
2017-Apr-20 12:28N 44°03' E 009°51'0 0.0
2017-Apr-20 11:52N 44°03' E 009°51'0 0.1
2017-Apr-20 11:28N 44°03' E 009°51'0 0.1
2017-Apr-20 10:58N 44°03' E 009°51'0 0.1
2017-Apr-20 10:28N 44°03' E 009°51'0 0.1
2017-Apr-20 09:58N 44°03' E 009°51'0 0.0
2017-Apr-20 09:28N 44°03' E 009°51'0 0.0
2017-Apr-20 08:58N 44°03' E 009°51'0 0.0
2017-Apr-20 08:28N 44°03' E 009°51'0 0.0
2017-Apr-20 07:58N 44°03' E 009°51'0 0.0
2017-Apr-20 07:28N 44°03' E 009°51'0 0.0
2017-Apr-20 06:58N 44°03' E 009°51'0 0.0
2017-Apr-20 06:28N 44°03' E 009°51'0 0.0
2017-Apr-20 05:58N 44°03' E 009°51'0 0.1
2017-Apr-20 05:28N 44°03' E 009°51'0 0.0
2017-Apr-20 05:00N 44°03' E 009°51'1 2.0
2017-Apr-20 04:30N 44°03' E 009°52'612.9
2017-Apr-20 04:01N 43°58' E 009°58'611.8
2017-Apr-20 03:31N 43°53' E 010°00'511.0
2017-Apr-20 03:01N 43°47' E 010°03'511.0
2017-Apr-20 02:30N 43°42' E 010°05'510.4
2017-Apr-20 02:01N 43°37' E 010°05'510.0
2017-Apr-20 01:30N 43°32' E 010°05'510.7
2017-Apr-20 01:00N 43°27' E 010°08'611.1
2017-Apr-20 00:31N 43°22' E 010°11'611.4
2017-Apr-20 00:00N 43°17' E 010°14'611.3
2017-Apr-19 23:30N 43°12' E 010°18'611.3
2017-Apr-19 23:00N 43°06' E 010°21'611.5
2017-Apr-19 22:30N 43°01' E 010°24'810.2
2017-Apr-19 21:41N 42°55' E 010°31'2 8.3
2017-Apr-19 21:26N 42°56' E 010°34'1 0.0
2017-Apr-19 05:31N 42°56' E 010°33'0 2.7
2017-Apr-19 05:27N 42°56' E 010°34'2 4.1
2017-Apr-19 05:00N 42°54' E 010°33'14 9.4
2017-Apr-19 03:33N 42°41' E 010°29'110.8
2017-Apr-19 03:28N 42°40' E 010°28'14 8.9
2017-Apr-19 01:52N 42°28' E 010°18'513.2
2017-Apr-19 01:30N 42°25' E 010°13'  
2017-Apr-16 20:15N 42°30' E 007°49'314.2
2017-Apr-16 20:00N 42°34' E 007°47'714.3
2017-Apr-16 19:30N 42°41' E 007°44'714.4
2017-Apr-16 19:00N 42°47' E 007°41'714.3
2017-Apr-16 18:30N 42°54' E 007°38'714.3
2017-Apr-16 18:00N 43°01' E 007°35'714.1
2017-Apr-16 17:30N 43°08' E 007°32'713.8
2017-Apr-16 17:00N 43°14' E 007°29'714.0
2017-Apr-16 16:30N 43°21' E 007°26'714.1
2017-Apr-16 16:00N 43°28' E 007°23'714.4
2017-Apr-16 15:30N 43°34' E 007°20'612.1
2017-Apr-16 15:00N 43°40' E 007°17'2 3.0
2017-Apr-16 14:29N 43°42' E 007°17'0 0.0
2017-Apr-16 13:29N 43°42' E 007°17'0 0.0
2017-Apr-16 12:53N 43°42' E 007°17'0 0.0
2017-Apr-16 12:26N 43°42' E 007°17'0 0.0
2017-Apr-16 11:56N 43°42' E 007°17'0 0.0
2017-Apr-16 11:29N 43°42' E 007°17'0 0.0
2017-Apr-16 10:50N 43°42' E 007°17'0 0.0
2017-Apr-16 10:27N 43°42' E 007°17'0 0.0
2017-Apr-16 09:47N 43°42' E 007°17'0 0.0
2017-Apr-16 09:29N 43°42' E 007°17'0 0.0
2017-Apr-16 08:53N 43°42' E 007°17'0 0.0
2017-Apr-16 08:29N 43°42' E 007°17'0 0.0
2017-Apr-16 07:53N 43°42' E 007°17'0 0.0
2017-Apr-16 07:26N 43°42' E 007°17'0 0.0
2017-Apr-16 06:56N 43°42' E 007°17'0 0.0
2017-Apr-16 06:29N 43°42' E 007°17'0 0.0
2017-Apr-16 05:56N 43°42' E 007°17'0 0.0
2017-Apr-16 05:26N 43°42' E 007°17'0 0.0
2017-Apr-16 04:59N 43°42' E 007°17'0 0.0
2017-Apr-16 04:26N 43°42' E 007°17'0 0.0
2017-Apr-16 04:00N 43°42' E 007°17'1 2.7
2017-Apr-16 03:30N 43°40' E 007°17'612.8
2017-Apr-16 03:00N 43°34' E 007°14'4 7.0
2017-Apr-16 02:30N 43°31' E 007°15'4 7.3
2017-Apr-16 02:00N 43°29' E 007°19'510.5
2017-Apr-16 01:30N 43°28' E 007°12'5 9.7
2017-Apr-16 01:00N 43°23' E 007°12'4 7.4
2017-Apr-16 00:30N 43°20' E 007°10'510.4
2017-Apr-16 00:00N 43°19' E 007°03'610.4
2017-Apr-15 23:25N 43°19' E 006°55'410.4
2017-Apr-15 23:00N 43°18' E 006°49'5 0.3
2017-Apr-15 04:45N 43°18' E 006°42'  

Dump ship's entire track history